Walla Walla Regional Airport
KALW : now visible

Airfield :











YOU CAN JOIN US ON...

 
LOGIN :

Register | Disclaimer

   EN    FR    IT 

 









Legend :    VFR   Marginal VFR   IFR   Intensive IFR   Very Intensive IFR
Visi :
Ceiling :
>= 8 km
>= 3000ft
5 to 8 km
1000 to 3000 ft
1500m to 5 km
500 to 1000 ft
800 to 1500m
200 to 500 ft
< 800m
< 200 ft
Symbols :   Thunderstorms  Fog  Heavy snow  Heavy precipitations  Wind > 20 kt






- Airport Elevation : 1194 ft
- IATA code : ALW


KALW - Walla Walla Regional

CURRENT METAR :
  • 031353Z 18009KT 10SM CLR 21/10 A3009 RMK AO2 SLP181 T02110100

EXPIRED METARs :
  • 031253Z 17011KT 10SM CLR 20/09 A3008 RMK AO2 SLP176 T02000094
  • 031153Z AUTO 18010KT 10SM CLR 21/09 A3007 RMK AO2 SLP173 T02110089 10250 20211 53009

TAF KALW
Valid from the 03 at 13:00 until the 04 at 12:00 UTC


031323Z 0313/0412 17011KT P6SM SKC
FM031700 23012KT P6SM SKC
FM040000 25007KT P6SM SKC
FM040400 16010KT P6SM SKC
KZSE FIR / North America



MET'MAP, your aeronautical weather chart ! - Copyright ORBIFLY December 2007 - Disclaimer

ORBIFLY MET'MAP TEAM :

Programming & Development : Alexandra Zaïnal
Concept & original design : Baudouin d'Aumeries
Assistance for programming : Marc-Olivier Méhu
Technical & hardware support : Manuel Goepfert

Contact : metmap@orbifly.com




SOURCES & CREDITS :

   NOAA       Earth
Advisory